createdAt,value
2022-08-26T00:00:06.187Z,90.20
2022-08-26T00:01:06.204Z,90.11
2022-08-26T00:02:06.241Z,90.20
2022-08-26T00:03:06.281Z,90.70
2022-08-26T00:04:06.199Z,90.00
2022-08-26T00:05:06.129Z,89.90
2022-08-26T00:06:06.185Z,90.00
2022-08-26T00:07:06.104Z,90.80
2022-08-26T00:08:06.089Z,90.75
2022-08-26T00:09:08.017Z,90.30
2022-08-26T00:10:06.069Z,90.45
2022-08-26T00:11:06.054Z,90.41
2022-08-26T00:12:06.060Z,90.55
2022-08-26T00:13:06.305Z,90.61
2022-08-26T00:14:06.026Z,90.50
2022-08-26T00:15:06.011Z,90.61
2022-08-26T00:16:06.041Z,90.55
2022-08-26T00:17:06.012Z,90.55
2022-08-26T00:18:05.982Z,90.45
2022-08-26T00:19:06.963Z,90.35
2022-08-26T00:20:05.961Z,90.65
2022-08-26T00:21:06.105Z,90.84
2022-08-26T00:22:05.930Z,90.45
2022-08-26T00:23:06.174Z,90.45
2022-08-26T00:24:05.906Z,90.84
2022-08-26T00:25:05.895Z,90.84
2022-08-26T00:26:05.892Z,91.25
2022-08-26T00:27:06.288Z,90.95
2022-08-26T00:28:05.940Z,90.95
2022-08-26T00:29:05.846Z,91.75
2022-08-26T00:30:05.841Z,91.64
2022-08-26T00:31:05.830Z,91.55
2022-08-26T00:32:05.862Z,91.15
2022-08-26T00:33:05.890Z,91.05
2022-08-26T00:34:05.815Z,91.45
2022-08-26T00:35:05.804Z,91.49
2022-08-26T00:36:05.774Z,91.59
2022-08-26T00:37:09.430Z,91.49
2022-08-26T00:38:05.748Z,91.49
2022-08-26T00:39:05.754Z,91.05
2022-08-26T00:40:05.760Z,91.39
2022-08-26T00:41:05.715Z,91.05
2022-08-26T00:42:05.705Z,91.19
2022-08-26T00:43:09.362Z,91.69
2022-08-26T00:44:05.685Z,91.29
2022-08-26T00:45:10.213Z,91.39
2022-08-26T00:46:06.774Z,91.59
2022-08-26T00:47:05.648Z,91.59
2022-08-26T00:48:05.638Z,91.99
2022-08-26T00:49:11.637Z,91.69
2022-08-26T00:50:06.624Z,92.19
2022-08-26T00:51:05.603Z,91.39
2022-08-26T00:52:05.595Z,91.39
2022-08-26T00:53:05.746Z,91.79
2022-08-26T00:54:05.599Z,91.79
2022-08-26T00:55:05.570Z,91.39
2022-08-26T00:56:05.543Z,91.49
2022-08-26T00:57:05.533Z,92.09
2022-08-26T00:58:06.524Z,91.99
2022-08-26T00:59:05.512Z,92.09
2022-08-26T01:00:05.503Z,92.09
2022-08-26T01:01:05.529Z,92.29
2022-08-26T01:02:05.553Z,91.99
2022-08-26T01:03:05.736Z,92.29
2022-08-26T01:04:06.456Z,91.99
2022-08-26T01:05:05.442Z,92.39
2022-08-26T01:06:05.442Z,91.79
2022-08-26T01:07:06.417Z,92.09
2022-08-26T01:08:05.410Z,91.79
2022-08-26T01:09:05.396Z,91.99
2022-08-26T01:10:05.384Z,92.29
2022-08-26T01:11:05.440Z,91.99
2022-08-26T01:12:05.371Z,91.79
2022-08-26T01:13:05.350Z,92.29
2022-08-26T01:14:05.347Z,92.49
2022-08-26T01:15:05.330Z,92.43
2022-08-26T01:16:05.406Z,92.63
2022-08-26T01:17:05.315Z,92.74
2022-08-26T01:18:05.301Z,92.79
2022-08-26T01:19:05.286Z,92.79
2022-08-26T01:20:05.348Z,92.49
2022-08-26T01:21:05.278Z,92.59
2022-08-26T01:22:05.251Z,92.69
2022-08-26T01:23:05.374Z,92.69
2022-08-26T01:24:05.223Z,92.63
2022-08-26T01:25:05.218Z,92.69
2022-08-26T01:26:05.206Z,92.79
2022-08-26T01:27:05.233Z,92.63
2022-08-26T01:28:05.183Z,92.69
2022-08-26T01:29:05.168Z,92.69
2022-08-26T01:30:05.159Z,92.79
2022-08-26T01:31:05.159Z,92.19
2022-08-26T01:32:05.290Z,93.09
2022-08-26T01:33:05.129Z,92.79
2022-08-26T01:34:05.115Z,93.19
2022-08-26T01:35:05.103Z,93.13
2022-08-26T01:36:05.087Z,92.99
2022-08-26T01:37:05.356Z,92.19
2022-08-26T01:38:05.069Z,92.99
2022-08-26T01:39:05.959Z,92.59
2022-08-26T01:40:05.061Z,93.04
2022-08-26T01:41:16.101Z,92.99
2022-08-26T01:42:06.041Z,92.19
2022-08-26T01:43:05.007Z,92.99
2022-08-26T01:44:05.004Z,92.99
2022-08-26T01:45:04.984Z,92.54
2022-08-26T01:46:05.077Z,92.33
2022-08-26T01:47:06.449Z,92.79
2022-08-26T01:48:04.976Z,92.79
2022-08-26T01:49:06.491Z,93.19
2022-08-26T01:50:04.936Z,92.19
2022-08-26T01:51:04.921Z,92.39
2022-08-26T01:52:04.908Z,92.39
2022-08-26T01:53:04.998Z,92.33
2022-08-26T01:54:04.891Z,92.83
2022-08-26T01:55:04.886Z,92.39
2022-08-26T01:56:04.859Z,92.54
2022-08-26T01:57:04.857Z,92.29
2022-08-26T01:58:04.865Z,92.49
2022-08-26T01:59:04.831Z,92.24
2022-08-26T02:00:04.824Z,92.89
2022-08-26T02:01:04.855Z,92.54
2022-08-26T02:02:04.799Z,92.63
2022-08-26T02:03:04.782Z,92.54
2022-08-26T02:04:04.788Z,92.74
2022-08-26T02:05:04.786Z,92.83
2022-08-26T02:06:04.756Z,92.74
2022-08-26T02:07:04.735Z,92.93
2022-08-26T02:08:04.731Z,92.83
2022-08-26T02:09:04.734Z,92.93
2022-08-26T02:10:04.704Z,93.13
2022-08-26T02:11:04.693Z,93.09
2022-08-26T02:12:04.686Z,93.24
2022-08-26T02:13:04.755Z,93.43
2022-08-26T02:14:04.661Z,93.43
2022-08-26T02:15:05.570Z,93.33
2022-08-26T02:16:04.704Z,93.33
2022-08-26T02:17:04.647Z,93.29
2022-08-26T02:18:04.622Z,93.43
2022-08-26T02:19:04.605Z,92.93
2022-08-26T02:20:04.618Z,93.33
2022-08-26T02:21:06.743Z,93.33
2022-08-26T02:22:04.570Z,93.13
2022-08-26T02:23:04.633Z,93.43
2022-08-26T02:24:04.553Z,93.43
2022-08-26T02:25:04.537Z,93.43
2022-08-26T02:26:04.542Z,93.33
2022-08-26T02:27:04.516Z,93.33
2022-08-26T02:28:04.499Z,93.43
2022-08-26T02:29:04.503Z,93.33
2022-08-26T02:30:04.486Z,93.33
2022-08-26T02:31:04.515Z,93.63
2022-08-26T02:32:04.459Z,93.78
2022-08-26T02:33:04.486Z,93.98
2022-08-26T02:34:04.438Z,93.78
2022-08-26T02:35:04.424Z,93.74
2022-08-26T02:36:04.419Z,93.88
2022-08-26T02:37:04.415Z,93.88
2022-08-26T02:38:10.225Z,93.43
2022-08-26T02:39:05.379Z,93.48
2022-08-26T02:40:04.404Z,93.58
2022-08-26T02:41:04.359Z,93.54
2022-08-26T02:42:04.364Z,93.43
2022-08-26T02:43:04.340Z,93.54
2022-08-26T02:44:04.335Z,94.38
2022-08-26T02:45:04.309Z,94.38
2022-08-26T02:46:04.295Z,93.88
2022-08-26T02:47:04.341Z,94.18
2022-08-26T02:48:04.291Z,93.98
2022-08-26T02:49:04.265Z,94.18
2022-08-26T02:50:04.271Z,93.74
2022-08-26T02:51:04.245Z,93.88
2022-08-26T02:52:04.238Z,93.98
2022-08-26T02:53:04.307Z,94.08
2022-08-26T02:54:04.212Z,94.08
2022-08-26T02:55:04.203Z,94.08
2022-08-26T02:56:04.189Z,93.98
2022-08-26T02:57:04.176Z,94.18
2022-08-26T02:58:04.187Z,94.38
2022-08-26T02:59:04.160Z,93.98
2022-08-26T03:00:04.145Z,93.98
2022-08-26T03:01:04.886Z,94.38
2022-08-26T03:02:04.175Z,94.88
2022-08-26T03:03:04.201Z,94.28
2022-08-26T03:04:04.102Z,94.68
2022-08-26T03:05:04.089Z,94.38
2022-08-26T03:06:04.077Z,94.58
2022-08-26T03:07:04.060Z,94.58
2022-08-26T03:08:04.054Z,94.88
2022-08-26T03:09:04.060Z,94.78
2022-08-26T03:10:06.936Z,94.48
2022-08-26T03:11:04.044Z,94.78
2022-08-26T03:12:04.011Z,94.48
2022-08-26T03:13:05.217Z,94.68
2022-08-26T03:14:04.005Z,94.38
2022-08-26T03:15:16.572Z,94.48
2022-08-26T03:16:04.980Z,94.68
2022-08-26T03:17:03.956Z,94.68
2022-08-26T03:18:03.936Z,94.38
2022-08-26T03:19:03.926Z,94.78
2022-08-26T03:20:03.925Z,94.28
2022-08-26T03:21:03.915Z,94.38
2022-08-26T03:22:03.904Z,94.68
2022-08-26T03:23:03.986Z,94.58
2022-08-26T03:24:03.875Z,95.18
2022-08-26T03:25:03.886Z,95.08
2022-08-26T03:26:03.854Z,95.28
2022-08-26T03:27:05.902Z,95.18
2022-08-26T03:28:03.822Z,95.18
2022-08-26T03:29:03.822Z,95.18
2022-08-26T03:30:03.807Z,95.28
2022-08-26T03:31:03.880Z,95.08
2022-08-26T03:32:03.784Z,95.28
2022-08-26T03:33:03.771Z,95.38
2022-08-26T03:34:03.756Z,95.18
2022-08-26T03:35:03.751Z,95.08
2022-08-26T03:36:03.763Z,95.08
2022-08-26T03:37:03.727Z,95.48
2022-08-26T03:38:03.724Z,95.28
2022-08-26T03:39:03.714Z,95.18
2022-08-26T03:40:03.711Z,95.28
2022-08-26T03:41:03.682Z,94.98
2022-08-26T03:42:03.691Z,94.78
2022-08-26T03:43:03.796Z,94.88
2022-08-26T03:44:03.650Z,94.78
2022-08-26T03:45:03.642Z,94.38
2022-08-26T03:46:03.658Z,94.58
2022-08-26T03:47:03.640Z,94.88
2022-08-26T03:48:03.603Z,94.68
2022-08-26T03:49:03.591Z,94.28
2022-08-26T03:50:03.577Z,94.58
2022-08-26T03:51:03.565Z,94.38
2022-08-26T03:52:03.552Z,94.58
2022-08-26T03:53:03.712Z,94.88
2022-08-26T03:54:03.531Z,94.38
2022-08-26T03:55:03.527Z,94.68
2022-08-26T03:56:03.511Z,94.88
2022-08-26T03:57:03.505Z,94.58
2022-08-26T03:58:03.507Z,94.58
2022-08-26T03:59:03.482Z,94.88
2022-08-26T04:00:03.469Z,94.58
2022-08-26T04:01:03.462Z,94.58
2022-08-26T04:02:03.501Z,94.88
2022-08-26T04:03:04.563Z,94.78
2022-08-26T04:04:03.421Z,95.32
2022-08-26T04:05:03.412Z,95.32
2022-08-26T04:06:03.408Z,95.48
2022-08-26T04:07:03.392Z,95.43
2022-08-26T04:08:04.396Z,95.08
2022-08-26T04:09:03.378Z,95.12
2022-08-26T04:10:03.358Z,95.32
2022-08-26T04:11:03.349Z,95.53
2022-08-26T04:12:03.342Z,95.38
2022-08-26T04:13:03.347Z,95.12
2022-08-26T04:14:03.310Z,95.12
2022-08-26T04:15:03.294Z,95.32
2022-08-26T04:16:03.386Z,95.23
2022-08-26T04:17:03.275Z,95.18
2022-08-26T04:18:03.271Z,95.32
2022-08-26T04:19:03.275Z,95.12
2022-08-26T04:20:03.249Z,95.18
2022-08-26T04:21:03.228Z,95.18
2022-08-26T04:22:03.224Z,95.03
2022-08-26T04:23:03.210Z,95.03
2022-08-26T04:24:03.635Z,95.12
2022-08-26T04:25:03.187Z,95.03
2022-08-26T04:26:03.173Z,94.82
2022-08-26T04:27:03.165Z,95.03
2022-08-26T04:28:03.165Z,95.23
2022-08-26T04:29:03.138Z,95.43
2022-08-26T04:30:03.154Z,95.32
2022-08-26T04:31:03.158Z,95.32
2022-08-26T04:32:03.118Z,95.32
2022-08-26T04:33:03.097Z,95.32
2022-08-26T04:34:04.089Z,95.32
2022-08-26T04:35:03.091Z,95.43
2022-08-26T04:36:03.068Z,95.48
2022-08-26T04:37:03.059Z,95.28
2022-08-26T04:38:03.049Z,95.28
2022-08-26T04:39:03.033Z,95.23
2022-08-26T04:40:03.154Z,95.32
2022-08-26T04:41:03.002Z,95.32
2022-08-26T04:42:03.004Z,95.38
2022-08-26T04:43:02.984Z,95.43
2022-08-26T04:44:02.975Z,95.43
2022-08-26T04:45:05.769Z,95.62
2022-08-26T04:46:04.067Z,95.53
2022-08-26T04:47:03.071Z,95.62
2022-08-26T04:48:02.948Z,95.62
2022-08-26T04:49:02.921Z,95.53
2022-08-26T04:50:02.909Z,95.62
2022-08-26T04:51:02.898Z,95.32
2022-08-26T04:52:02.886Z,96.28
2022-08-26T04:53:02.888Z,95.93
2022-08-26T04:54:02.865Z,96.03
2022-08-26T04:55:02.849Z,96.23
2022-08-26T04:56:02.838Z,95.98
2022-08-26T04:57:02.831Z,95.73
2022-08-26T04:58:02.829Z,95.83
2022-08-26T04:59:02.818Z,96.28
2022-08-26T05:00:02.842Z,96.48
2022-08-26T05:01:02.803Z,95.98
2022-08-26T05:02:02.824Z,96.48
2022-08-26T05:03:02.839Z,96.28
2022-08-26T05:04:02.801Z,96.38
2022-08-26T05:05:03.734Z,96.48
2022-08-26T05:06:02.726Z,96.38
2022-08-26T05:07:03.197Z,96.28
2022-08-26T05:08:02.718Z,96.38
2022-08-26T05:09:02.698Z,96.28
2022-08-26T05:10:02.684Z,96.28
2022-08-26T05:11:02.671Z,96.48
2022-08-26T05:12:02.662Z,96.28
2022-08-26T05:13:02.673Z,96.38
2022-08-26T05:14:02.644Z,96.48
2022-08-26T05:15:02.624Z,96.38
2022-08-26T05:16:02.662Z,96.58
2022-08-26T05:17:02.612Z,96.38
2022-08-26T05:18:02.605Z,96.48
2022-08-26T05:19:02.585Z,96.38
2022-08-26T05:20:02.568Z,96.38
2022-08-26T05:21:02.557Z,96.38
2022-08-26T05:22:02.553Z,95.98
2022-08-26T05:23:02.570Z,96.38
2022-08-26T05:24:02.540Z,97.28
2022-08-26T05:25:02.510Z,96.68
2022-08-26T05:26:02.503Z,96.68
2022-08-26T05:27:02.491Z,96.68
2022-08-26T05:28:03.494Z,96.53
2022-08-26T05:29:02.478Z,96.64
2022-08-26T05:30:02.461Z,96.64
2022-08-26T05:31:02.539Z,96.64
2022-08-26T05:32:02.442Z,96.84
2022-08-26T05:33:02.442Z,97.03
2022-08-26T05:34:03.729Z,97.03
2022-08-26T05:35:02.412Z,97.03
2022-08-26T05:36:02.401Z,96.59
2022-08-26T05:37:02.396Z,97.03
2022-08-26T05:38:02.387Z,97.03
2022-08-26T05:39:02.366Z,96.99
2022-08-26T05:40:02.416Z,96.99
2022-08-26T05:41:02.334Z,96.99
2022-08-26T05:42:02.347Z,96.59
2022-08-26T05:43:02.373Z,96.79
2022-08-26T05:44:02.304Z,96.59
2022-08-26T05:45:02.304Z,96.89
2022-08-26T05:46:02.279Z,96.29
2022-08-26T05:47:02.263Z,95.99
2022-08-26T05:48:02.275Z,96.19
2022-08-26T05:49:02.248Z,96.29
2022-08-26T05:50:02.268Z,96.29
2022-08-26T05:51:02.232Z,96.19
2022-08-26T05:52:02.218Z,96.34
2022-08-26T05:53:02.315Z,95.95
2022-08-26T05:54:02.187Z,96.44
2022-08-26T05:55:02.177Z,96.14
2022-08-26T05:56:02.162Z,96.14
2022-08-26T05:57:02.152Z,96.25
2022-08-26T05:58:02.683Z,95.95
2022-08-26T05:59:02.135Z,95.84
2022-08-26T06:00:02.132Z,95.54
2022-08-26T06:01:02.111Z,95.64
2022-08-26T06:02:02.180Z,95.64
2022-08-26T06:03:02.175Z,95.45
2022-08-26T06:04:02.135Z,96.14
2022-08-26T06:05:02.093Z,95.15
2022-08-26T06:06:02.047Z,94.84
2022-08-26T06:07:02.064Z,94.95
2022-08-26T06:08:02.037Z,95.15
2022-08-26T06:09:02.040Z,95.04
2022-08-26T06:10:30.513Z,94.95
2022-08-26T06:11:02.994Z,95.00
2022-08-26T06:12:01.981Z,94.80
2022-08-26T06:13:09.258Z,94.50
2022-08-26T06:14:03.806Z,94.60
2022-08-26T06:15:02.002Z,94.60
2022-08-26T06:16:02.000Z,94.20
2022-08-26T06:17:01.923Z,94.30
2022-08-26T06:18:01.914Z,94.30
2022-08-26T06:19:01.916Z,93.70
2022-08-26T06:20:01.909Z,94.06
2022-08-26T06:21:01.882Z,94.15
2022-08-26T06:22:01.867Z,94.06
2022-08-26T06:23:01.871Z,94.35
2022-08-26T06:24:01.866Z,93.85
2022-08-26T06:25:01.839Z,93.76
2022-08-26T06:26:01.823Z,93.66
2022-08-26T06:27:01.886Z,93.66
2022-08-26T06:28:01.796Z,93.76
2022-08-26T06:29:01.805Z,93.96
2022-08-26T06:30:01.777Z,93.46
2022-08-26T06:31:01.800Z,93.76
2022-08-26T06:32:01.763Z,93.51
2022-08-26T06:33:01.783Z,93.66
2022-08-26T06:34:01.767Z,93.41
2022-08-26T06:35:01.718Z,93.46
2022-08-26T06:36:01.742Z,93.41
2022-08-26T06:37:01.914Z,93.12
2022-08-26T06:38:01.686Z,93.01
2022-08-26T06:39:01.684Z,93.01
2022-08-26T06:40:01.848Z,92.71
2022-08-26T06:41:01.651Z,92.91
2022-08-26T06:42:02.609Z,92.71
2022-08-26T06:43:01.655Z,92.61
2022-08-26T06:44:01.630Z,92.51
2022-08-26T06:45:01.610Z,92.47
2022-08-26T06:46:01.655Z,92.17
2022-08-26T06:47:01.581Z,92.47
2022-08-26T06:48:01.583Z,92.27
2022-08-26T06:49:01.588Z,92.27
2022-08-26T06:50:01.552Z,92.67
2022-08-26T06:51:01.535Z,92.37
2022-08-26T06:52:01.527Z,91.97
2022-08-26T06:53:01.544Z,92.03
2022-08-26T06:54:01.511Z,91.77
2022-08-26T06:55:01.515Z,91.53
2022-08-26T06:56:01.484Z,92.33
2022-08-26T06:57:01.512Z,91.53
2022-08-26T06:58:01.454Z,91.53
2022-08-26T06:59:01.451Z,91.53
2022-08-26T07:00:01.457Z,92.22
2022-08-26T07:01:04.422Z,91.63
2022-08-26T07:02:02.481Z,91.93
2022-08-26T07:03:01.488Z,91.83
2022-08-26T07:04:01.384Z,91.53
2022-08-26T07:05:01.408Z,91.38
2022-08-26T07:06:01.366Z,91.53
2022-08-26T07:07:01.353Z,91.38
2022-08-26T07:08:01.347Z,91.88
2022-08-26T07:09:01.332Z,91.68
2022-08-26T07:10:01.333Z,91.49
2022-08-26T07:11:01.319Z,91.38
2022-08-26T07:12:01.337Z,91.58
2022-08-26T07:13:01.307Z,91.74
2022-08-26T07:14:01.282Z,91.64
2022-08-26T07:15:01.276Z,91.58
2022-08-26T07:16:03.146Z,91.54
2022-08-26T07:17:01.246Z,91.74
2022-08-26T07:18:01.236Z,91.44
2022-08-26T07:19:01.255Z,91.74
2022-08-26T07:20:01.224Z,91.44
2022-08-26T07:21:01.216Z,92.33
2022-08-26T07:22:01.193Z,92.24
2022-08-26T07:23:01.231Z,91.94
2022-08-26T07:24:01.447Z,91.74
2022-08-26T07:25:01.152Z,92.24
2022-08-26T07:26:01.148Z,90.90
2022-08-26T07:27:01.153Z,90.80
2022-08-26T07:28:01.122Z,90.70
2022-08-26T07:29:01.110Z,90.80
2022-08-26T07:30:01.098Z,90.70
2022-08-26T07:31:01.129Z,90.70
2022-08-26T07:32:01.079Z,90.90
2022-08-26T07:33:01.067Z,91.00
2022-08-26T07:34:01.068Z,91.05
2022-08-26T07:35:01.047Z,90.95
2022-08-26T07:36:01.027Z,90.36
2022-08-26T07:37:01.084Z,90.45
2022-08-26T07:38:01.002Z,90.45
2022-08-26T07:39:00.992Z,91.21
2022-08-26T07:40:01.050Z,90.95
2022-08-26T07:41:01.006Z,90.66
2022-08-26T07:42:00.971Z,90.41
2022-08-26T07:43:01.027Z,90.61
2022-08-26T07:44:00.938Z,90.01
2022-08-26T07:45:00.923Z,90.31
2022-08-26T07:46:00.918Z,90.01
2022-08-26T07:47:00.918Z,90.01
2022-08-26T07:48:00.892Z,89.72
2022-08-26T07:49:00.941Z,90.07
2022-08-26T07:50:00.874Z,89.97
2022-08-26T07:51:00.863Z,89.97
2022-08-26T07:52:00.874Z,88.98
2022-08-26T07:53:00.837Z,88.98
2022-08-26T07:54:00.828Z,89.33
2022-08-26T07:55:00.812Z,89.43
2022-08-26T07:56:00.812Z,88.54
2022-08-26T07:57:00.801Z,88.04
2022-08-26T07:58:00.786Z,88.44
2022-08-26T07:59:00.769Z,88.20
2022-08-26T08:00:00.757Z,88.20
2022-08-26T08:01:00.838Z,88.70
2022-08-26T08:02:00.860Z,88.14
2022-08-26T08:03:00.820Z,88.30
2022-08-26T08:04:00.751Z,88.49
2022-08-26T08:05:00.784Z,88.30
2022-08-26T08:06:00.715Z,87.30
2022-08-26T08:07:00.679Z,87.70
2022-08-26T08:08:26.376Z,87.26
2022-08-26T08:09:01.651Z,87.86
2022-08-26T08:10:00.644Z,88.55
2022-08-26T08:11:00.651Z,88.26
2022-08-26T08:12:00.635Z,87.96
2022-08-26T08:13:00.609Z,87.56
2022-08-26T08:14:00.692Z,86.77
2022-08-26T08:15:00.601Z,87.26
2022-08-26T08:16:00.638Z,86.66
2022-08-26T08:17:00.708Z,86.66
2022-08-26T08:18:04.667Z,86.77
2022-08-26T08:19:00.634Z,87.12
2022-08-26T08:20:00.536Z,86.82
2022-08-26T08:21:21.162Z,86.92
2022-08-26T08:22:01.542Z,87.52
2022-08-26T08:23:00.492Z,87.62
2022-08-26T08:24:00.513Z,86.98
2022-08-26T08:25:00.561Z,85.73
2022-08-26T08:26:00.477Z,85.14
2022-08-26T08:27:00.469Z,85.49
2022-08-26T08:28:00.462Z,85.49
2022-08-26T08:29:00.462Z,85.30
2022-08-26T08:30:00.529Z,84.50
2022-08-26T08:31:00.503Z,84.20
2022-08-26T08:32:00.452Z,83.37
2022-08-26T08:33:00.401Z,83.27
2022-08-26T08:34:00.392Z,83.47
2022-08-26T08:35:00.391Z,83.57
2022-08-26T08:36:00.452Z,83.37
2022-08-26T08:37:00.364Z,83.17
2022-08-26T08:38:00.351Z,83.03
2022-08-26T08:39:00.348Z,83.13
2022-08-26T08:40:00.384Z,82.93
2022-08-26T08:41:00.316Z,83.13
2022-08-26T08:42:00.311Z,83.43
2022-08-26T08:43:00.340Z,83.13
2022-08-26T08:44:00.265Z,83.13
2022-08-26T08:45:00.259Z,82.99
2022-08-26T08:46:00.376Z,81.60
2022-08-26T08:47:00.327Z,81.01
2022-08-26T08:48:00.227Z,81.51
2022-08-26T08:49:00.234Z,82.10
2022-08-26T08:50:00.243Z,82.26
2022-08-26T08:51:00.192Z,83.15
2022-08-26T08:52:00.271Z,83.19
2022-08-26T08:53:00.173Z,83.05
2022-08-26T08:54:00.164Z,83.05
2022-08-26T08:55:00.137Z,83.05
2022-08-26T08:56:00.149Z,83.15
2022-08-26T08:57:00.123Z,83.05
2022-08-26T08:58:07.956Z,83.25
2022-08-26T08:59:01.119Z,82.65
2022-08-26T09:00:00.092Z,83.01
2022-08-26T09:01:00.211Z,82.81
2022-08-26T09:02:00.184Z,80.74
2022-08-26T09:03:00.148Z,80.24
2022-08-26T09:04:00.062Z,79.94
2022-08-26T09:05:00.034Z,81.09
2022-08-26T09:06:00.036Z,81.29
2022-08-26T09:07:00.014Z,80.20
2022-08-26T09:08:00.129Z,80.40
2022-08-26T09:08:59.986Z,81.39
2022-08-26T09:09:59.980Z,81.49
2022-08-26T09:10:59.964Z,81.29
2022-08-26T09:11:59.993Z,81.09
2022-08-26T09:12:59.960Z,81.49
2022-08-26T09:14:00.323Z,80.95
2022-08-26T09:14:59.913Z,80.85
2022-08-26T09:15:59.975Z,79.67
2022-08-26T09:17:00.010Z,80.66
2022-08-26T09:17:59.899Z,80.16
2022-08-26T09:18:59.958Z,78.38
2022-08-26T09:19:59.876Z,78.49
2022-08-26T09:20:59.889Z,79.27
2022-08-26T09:21:59.835Z,79.17
2022-08-26T09:22:59.897Z,79.43
2022-08-26T09:23:59.918Z,77.75
2022-08-26T09:24:59.821Z,77.72
2022-08-26T09:25:59.810Z,78.41
2022-08-26T09:26:59.807Z,76.82
2022-08-26T09:27:59.787Z,75.35
2022-08-26T09:28:59.841Z,75.94
2022-08-26T09:29:59.780Z,75.54
2022-08-26T09:30:59.821Z,73.04
2022-08-26T09:31:59.728Z,72.74
2022-08-26T09:32:59.745Z,73.40
2022-08-26T09:33:59.791Z,72.71
2022-08-26T09:34:59.697Z,71.92
2022-08-26T09:35:59.680Z,71.23
2022-08-26T09:36:59.673Z,70.21
2022-08-26T09:37:59.669Z,69.91
2022-08-26T09:38:59.652Z,70.11
2022-08-26T09:39:59.746Z,69.12
2022-08-26T09:40:59.739Z,68.79
2022-08-26T09:41:59.760Z,68.79
2022-08-26T09:42:59.630Z,68.50
2022-08-26T09:43:59.589Z,69.78
2022-08-26T09:44:59.678Z,69.68
2022-08-26T09:45:59.899Z,70.57
2022-08-26T09:46:59.561Z,69.78
2022-08-26T09:48:01.207Z,70.43
2022-08-26T09:49:00.535Z,71.32
2022-08-26T09:49:59.562Z,71.32
2022-08-26T09:50:59.512Z,69.45
2022-08-26T09:51:59.509Z,68.66
2022-08-26T09:52:59.495Z,68.27
2022-08-26T09:53:59.476Z,68.66
2022-08-26T09:54:59.471Z,70.83
2022-08-26T09:55:59.475Z,71.22
2022-08-26T09:56:59.456Z,71.91
2022-08-26T09:58:03.592Z,72.50
2022-08-26T09:59:00.424Z,72.31
2022-08-26T09:59:59.414Z,72.67
2022-08-26T10:00:59.532Z,70.14
2022-08-26T10:01:59.423Z,67.55
2022-08-26T10:02:59.390Z,67.44
2022-08-26T10:03:59.446Z,67.74
2022-08-26T10:04:59.402Z,68.63
2022-08-26T10:06:00.443Z,68.89
2022-08-26T10:06:59.359Z,68.10
2022-08-26T10:07:59.611Z,69.97
2022-08-26T10:08:59.316Z,71.22
2022-08-26T10:09:59.354Z,69.35
2022-08-26T10:10:59.292Z,66.96
2022-08-26T10:11:59.302Z,65.88
2022-08-26T10:12:59.270Z,67.94
2022-08-26T10:13:59.269Z,67.51
2022-08-26T10:14:59.284Z,64.76
2022-08-26T10:15:59.519Z,64.43
2022-08-26T10:16:59.361Z,64.89
2022-08-26T10:17:59.216Z,64.86
2022-08-26T10:19:00.260Z,63.75
2022-08-26T10:19:59.203Z,63.07
2022-08-26T10:20:59.182Z,62.94
2022-08-26T10:21:59.243Z,64.01
2022-08-26T10:22:59.179Z,62.84
2022-08-26T10:23:59.151Z,64.51
2022-08-26T10:24:59.148Z,61.76
2022-08-26T10:25:59.379Z,62.64
2022-08-26T10:26:59.123Z,62.02
2022-08-26T10:27:59.134Z,61.80
2022-08-26T10:28:59.102Z,62.35
2022-08-26T10:29:59.103Z,60.53
2022-08-26T10:30:59.083Z,60.18
2022-08-26T10:32:02.655Z,56.74
2022-08-26T10:32:59.086Z,56.58
2022-08-26T10:34:00.350Z,53.63
2022-08-26T10:34:59.042Z,54.19
2022-08-26T10:35:59.032Z,53.38
2022-08-26T10:37:13.760Z,54.85
2022-08-26T10:38:00.028Z,53.85
2022-08-26T10:38:59.008Z,53.42
2022-08-26T10:39:59.419Z,53.89
2022-08-26T10:40:58.984Z,52.72
2022-08-26T10:41:58.971Z,51.36
2022-08-26T10:42:58.959Z,52.50
2022-08-26T10:43:58.978Z,51.43
2022-08-26T10:44:58.932Z,49.32
2022-08-26T10:45:58.975Z,51.75
2022-08-26T10:46:58.924Z,52.75
2022-08-26T10:47:58.906Z,51.67
2022-08-26T10:49:00.078Z,51.80
2022-08-26T10:50:03.262Z,53.55
2022-08-26T10:50:58.875Z,54.06
2022-08-26T10:51:58.875Z,53.53
2022-08-26T10:52:58.855Z,56.48
2022-08-26T10:53:58.840Z,54.75
2022-08-26T10:54:58.853Z,56.35
2022-08-26T10:55:58.826Z,56.05
2022-08-26T10:56:58.813Z,56.25
2022-08-26T10:57:58.802Z,58.52
2022-08-26T10:58:58.791Z,59.30
2022-08-26T10:59:58.792Z,58.52
2022-08-26T11:00:58.822Z,54.25
2022-08-26T11:01:58.760Z,55.52
2022-08-26T11:02:58.744Z,57.09
2022-08-26T11:03:58.782Z,58.16
2022-08-26T11:04:58.753Z,57.38
2022-08-26T11:05:58.721Z,56.79
2022-08-26T11:06:58.705Z,57.99
2022-08-26T11:07:58.693Z,58.70
2022-08-26T11:08:58.681Z,60.27
2022-08-26T11:09:58.685Z,61.25
2022-08-26T11:10:59.060Z,60.21
2022-08-26T11:11:58.650Z,58.73
2022-08-26T11:12:58.644Z,58.57
2022-08-26T11:13:58.631Z,59.45
2022-08-26T11:14:59.378Z,59.48
2022-08-26T11:15:58.625Z,62.64
2022-08-26T11:16:58.823Z,61.07
2022-08-26T11:18:00.039Z,62.45
2022-08-26T11:18:58.577Z,63.17
2022-08-26T11:20:02.158Z,60.05
2022-08-26T11:20:58.574Z,61.23
2022-08-26T11:21:58.560Z,61.36
2022-08-26T11:22:59.626Z,62.63
2022-08-26T11:23:58.521Z,61.29
2022-08-26T11:24:58.736Z,61.88
2022-08-26T11:25:58.496Z,61.91
2022-08-26T11:26:58.504Z,62.99
2022-08-26T11:27:58.474Z,62.90
2022-08-26T11:28:58.467Z,63.22
2022-08-26T11:29:58.456Z,62.82
2022-08-26T11:30:58.546Z,64.99
2022-08-26T11:31:58.490Z,65.68
2022-08-26T11:32:58.422Z,64.30
2022-08-26T11:33:59.530Z,65.61
2022-08-26T11:34:58.460Z,66.79
2022-08-26T11:35:58.386Z,66.40
2022-08-26T11:36:58.392Z,67.77
2022-08-26T11:37:58.369Z,67.02
2022-08-26T11:38:58.360Z,67.71
2022-08-26T11:39:58.393Z,68.60
2022-08-26T11:40:58.334Z,69.02
2022-08-26T11:41:58.335Z,70.10
2022-08-26T11:42:59.596Z,69.12
2022-08-26T11:43:58.302Z,67.84
2022-08-26T11:44:58.363Z,67.35
2022-08-26T11:45:58.345Z,68.04
2022-08-26T11:46:58.266Z,69.65
2022-08-26T11:47:58.276Z,67.97
2022-08-26T11:48:58.249Z,67.68
2022-08-26T11:49:58.236Z,69.15
2022-08-26T11:50:58.222Z,68.27
2022-08-26T11:51:58.210Z,69.35
2022-08-26T11:52:58.236Z,70.86
2022-08-26T11:53:58.187Z,71.16
2022-08-26T11:54:58.175Z,71.26
2022-08-26T11:55:58.168Z,71.36
2022-08-26T11:56:58.156Z,70.76
2022-08-26T11:57:58.152Z,70.60
2022-08-26T11:58:58.152Z,67.94
2022-08-26T11:59:58.122Z,68.13
2022-08-26T12:00:58.117Z,67.55
2022-08-26T12:01:58.103Z,68.13
2022-08-26T12:02:58.088Z,70.11
2022-08-26T12:03:58.499Z,69.81
2022-08-26T12:04:58.063Z,65.18
2022-08-26T12:05:58.053Z,63.04
2022-08-26T12:06:58.046Z,63.37
2022-08-26T12:07:58.043Z,63.40
2022-08-26T12:08:58.035Z,64.51
2022-08-26T12:09:58.009Z,64.25
2022-08-26T12:10:58.002Z,65.23
2022-08-26T12:11:58.237Z,64.78
2022-08-26T12:12:57.980Z,66.46
2022-08-26T12:13:57.967Z,67.38
2022-08-26T12:14:57.975Z,67.91
2022-08-26T12:15:57.946Z,69.19
2022-08-26T12:16:57.942Z,68.96
2022-08-26T12:17:57.922Z,70.25
2022-08-26T12:18:57.912Z,72.17
2022-08-26T12:19:57.916Z,73.10
2022-08-26T12:20:57.888Z,73.29
2022-08-26T12:21:57.880Z,73.03
2022-08-26T12:22:57.873Z,75.12
2022-08-26T12:23:57.855Z,75.35
2022-08-26T12:24:57.876Z,75.25
2022-08-26T12:25:57.833Z,76.78
2022-08-26T12:26:57.820Z,76.78
2022-08-26T12:27:57.821Z,76.87
2022-08-26T12:28:57.810Z,77.31
2022-08-26T12:29:57.787Z,78.11
2022-08-26T12:30:57.795Z,78.20
2022-08-26T12:31:57.796Z,78.20
2022-08-26T12:32:58.814Z,78.80
2022-08-26T12:33:59.077Z,79.79
2022-08-26T12:34:57.758Z,79.39
2022-08-26T12:35:57.745Z,79.60
2022-08-26T12:37:57.721Z,81.02
2022-08-26T12:38:58.547Z,82.12
2022-08-26T12:39:57.727Z,82.02
2022-08-26T12:40:57.680Z,81.62
2022-08-26T12:41:57.688Z,82.32
2022-08-26T12:42:57.659Z,82.65
2022-08-26T12:43:57.647Z,83.59
2022-08-26T12:44:57.636Z,83.39
2022-08-26T12:45:57.721Z,83.63
2022-08-26T12:46:57.641Z,83.53
2022-08-26T12:47:57.642Z,83.77
2022-08-26T12:48:57.589Z,83.87
2022-08-26T12:49:57.576Z,84.37
2022-08-26T12:50:57.572Z,85.36
2022-08-26T12:51:57.551Z,84.97
2022-08-26T12:52:57.556Z,85.30